sensor_id;sensor_type;location;lat;lon;timestamp;P1;durP1;ratioP1;P2;durP2;ratioP2
14778;SDS011;7481;53.750;10.570;2023-05-17T00:00:18;9.80;;;3.93;;
14778;SDS011;7481;53.750;10.570;2023-05-17T00:03:05;16.57;;;4.27;;
14778;SDS011;7481;53.750;10.570;2023-05-17T00:05:53;10.80;;;3.83;;
14778;SDS011;7481;53.750;10.570;2023-05-17T00:08:40;18.20;;;4.03;;
14778;SDS011;7481;53.750;10.570;2023-05-17T00:11:28;16.23;;;3.60;;
14778;SDS011;7481;53.750;10.570;2023-05-17T00:14:15;17.97;;;4.47;;
14778;SDS011;7481;53.750;10.570;2023-05-17T00:17:03;15.53;;;4.73;;
14778;SDS011;7481;53.750;10.570;2023-05-17T00:19:50;15.00;;;4.07;;
14778;SDS011;7481;53.750;10.570;2023-05-17T00:22:38;14.13;;;4.03;;
14778;SDS011;7481;53.750;10.570;2023-05-17T00:25:26;19.00;;;5.57;;
14778;SDS011;7481;53.750;10.570;2023-05-17T00:28:14;20.07;;;4.77;;
14778;SDS011;7481;53.750;10.570;2023-05-17T00:31:01;12.10;;;3.93;;
14778;SDS011;7481;53.750;10.570;2023-05-17T00:33:49;13.57;;;4.20;;
14778;SDS011;7481;53.750;10.570;2023-05-17T00:36:36;10.27;;;3.50;;
14778;SDS011;7481;53.750;10.570;2023-05-17T00:39:24;15.93;;;3.83;;
14778;SDS011;7481;53.750;10.570;2023-05-17T00:42:11;11.33;;;3.47;;
14778;SDS011;7481;53.750;10.570;2023-05-17T00:44:59;10.43;;;3.63;;
14778;SDS011;7481;53.750;10.570;2023-05-17T00:47:47;13.00;;;3.70;;
14778;SDS011;7481;53.750;10.570;2023-05-17T00:50:36;14.43;;;3.80;;
14778;SDS011;7481;53.750;10.570;2023-05-17T00:53:24;14.53;;;4.53;;
14778;SDS011;7481;53.750;10.570;2023-05-17T00:56:12;12.60;;;4.40;;
14778;SDS011;7481;53.750;10.570;2023-05-17T00:58:59;12.13;;;3.40;;
14778;SDS011;7481;53.750;10.570;2023-05-17T01:01:47;15.37;;;4.27;;
14778;SDS011;7481;53.750;10.570;2023-05-17T01:04:35;13.77;;;4.00;;
14778;SDS011;7481;53.750;10.570;2023-05-17T01:07:22;16.30;;;3.87;;
14778;SDS011;7481;53.750;10.570;2023-05-17T01:10:10;8.67;;;3.20;;
14778;SDS011;7481;53.750;10.570;2023-05-17T01:18:54;14.10;;;4.17;;
14778;SDS011;7481;53.750;10.570;2023-05-17T01:27:36;13.73;;;3.63;;
14778;SDS011;7481;53.750;10.570;2023-05-17T01:30:26;12.90;;;3.33;;
14778;SDS011;7481;53.750;10.570;2023-05-17T01:33:14;7.43;;;3.77;;
14778;SDS011;7481;53.750;10.570;2023-05-17T01:36:02;11.20;;;3.13;;
14778;SDS011;7481;53.750;10.570;2023-05-17T01:38:50;10.77;;;3.30;;
14778;SDS011;7481;53.750;10.570;2023-05-17T01:41:41;13.47;;;4.03;;
14778;SDS011;7481;53.750;10.570;2023-05-17T01:44:49;9.00;;;3.43;;
14778;SDS011;7481;53.750;10.570;2023-05-17T01:47:45;18.97;;;4.50;;
14778;SDS011;7481;53.750;10.570;2023-05-17T01:50:34;14.70;;;3.47;;
14778;SDS011;7481;53.750;10.570;2023-05-17T01:53:29;12.53;;;3.03;;
14778;SDS011;7481;53.750;10.570;2023-05-17T01:56:19;18.27;;;3.47;;
14778;SDS011;7481;53.750;10.570;2023-05-17T01:59:08;13.97;;;3.90;;
14778;SDS011;7481;53.750;10.570;2023-05-17T02:01:58;12.93;;;3.53;;
14778;SDS011;7481;53.750;10.570;2023-05-17T02:04:52;13.17;;;3.33;;
14778;SDS011;7481;53.750;10.570;2023-05-17T02:07:40;11.47;;;3.40;;
14778;SDS011;7481;53.750;10.570;2023-05-17T02:10:27;10.20;;;3.13;;
14778;SDS011;7481;53.750;10.570;2023-05-17T02:13:15;14.03;;;3.77;;
14778;SDS011;7481;53.750;10.570;2023-05-17T02:16:02;15.77;;;3.20;;
14778;SDS011;7481;53.750;10.570;2023-05-17T02:18:50;10.93;;;3.27;;
14778;SDS011;7481;53.750;10.570;2023-05-17T02:21:37;15.27;;;3.23;;
14778;SDS011;7481;53.750;10.570;2023-05-17T02:24:25;12.27;;;2.90;;
14778;SDS011;7481;53.750;10.570;2023-05-17T02:27:12;11.53;;;3.20;;
14778;SDS011;7481;53.750;10.570;2023-05-17T02:30:00;15.47;;;3.63;;
14778;SDS011;7481;53.750;10.570;2023-05-17T02:32:50;10.20;;;3.40;;
14778;SDS011;7481;53.750;10.570;2023-05-17T02:35:37;9.93;;;3.97;;
14778;SDS011;7481;53.750;10.570;2023-05-17T02:38:25;9.77;;;2.53;;
14778;SDS011;7481;53.750;10.570;2023-05-17T02:41:12;9.43;;;2.93;;
14778;SDS011;7481;53.750;10.570;2023-05-17T02:44:00;9.17;;;3.17;;
14778;SDS011;7481;53.750;10.570;2023-05-17T02:46:48;9.67;;;3.13;;
14778;SDS011;7481;53.750;10.570;2023-05-17T02:49:35;14.53;;;3.67;;
14778;SDS011;7481;53.750;10.570;2023-05-17T02:52:23;9.37;;;3.23;;
14778;SDS011;7481;53.750;10.570;2023-05-17T02:55:10;10.70;;;3.50;;
14778;SDS011;7481;53.750;10.570;2023-05-17T02:57:57;14.17;;;3.20;;
14778;SDS011;7481;53.750;10.570;2023-05-17T03:00:45;14.60;;;3.83;;
14778;SDS011;7481;53.750;10.570;2023-05-17T03:03:32;15.30;;;3.30;;
14778;SDS011;7481;53.750;10.570;2023-05-17T03:06:20;8.33;;;2.73;;
14778;SDS011;7481;53.750;10.570;2023-05-17T03:09:07;8.67;;;3.40;;
14778;SDS011;7481;53.750;10.570;2023-05-17T03:11:55;13.50;;;3.17;;
14778;SDS011;7481;53.750;10.570;2023-05-17T03:14:42;8.23;;;2.53;;
14778;SDS011;7481;53.750;10.570;2023-05-17T03:17:30;8.87;;;3.03;;
14778;SDS011;7481;53.750;10.570;2023-05-17T03:20:17;10.17;;;3.10;;
14778;SDS011;7481;53.750;10.570;2023-05-17T03:23:05;8.90;;;3.13;;
14778;SDS011;7481;53.750;10.570;2023-05-17T03:25:52;9.97;;;2.97;;
14778;SDS011;7481;53.750;10.570;2023-05-17T03:28:40;11.13;;;3.10;;
14778;SDS011;7481;53.750;10.570;2023-05-17T03:31:27;13.50;;;3.20;;
14778;SDS011;7481;53.750;10.570;2023-05-17T03:34:15;9.83;;;3.10;;
14778;SDS011;7481;53.750;10.570;2023-05-17T03:37:02;10.37;;;2.47;;
14778;SDS011;7481;53.750;10.570;2023-05-17T03:39:52;9.83;;;2.70;;
14778;SDS011;7481;53.750;10.570;2023-05-17T03:42:40;10.30;;;2.70;;
14778;SDS011;7481;53.750;10.570;2023-05-17T03:45:27;10.13;;;2.90;;
14778;SDS011;7481;53.750;10.570;2023-05-17T03:48:15;9.97;;;2.70;;
14778;SDS011;7481;53.750;10.570;2023-05-17T03:51:02;13.97;;;3.10;;
14778;SDS011;7481;53.750;10.570;2023-05-17T03:53:55;8.83;;;2.50;;
14778;SDS011;7481;53.750;10.570;2023-05-17T03:56:43;5.83;;;2.30;;
14778;SDS011;7481;53.750;10.570;2023-05-17T03:59:32;9.00;;;2.53;;
14778;SDS011;7481;53.750;10.570;2023-05-17T04:02:20;13.97;;;2.93;;
14778;SDS011;7481;53.750;10.570;2023-05-17T04:05:07;9.77;;;2.93;;
14778;SDS011;7481;53.750;10.570;2023-05-17T04:07:55;12.90;;;2.50;;
14778;SDS011;7481;53.750;10.570;2023-05-17T04:10:43;15.93;;;3.27;;
14778;SDS011;7481;53.750;10.570;2023-05-17T04:13:30;11.57;;;3.20;;
14778;SDS011;7481;53.750;10.570;2023-05-17T04:16:18;13.63;;;3.60;;
14778;SDS011;7481;53.750;10.570;2023-05-17T04:19:05;7.73;;;2.77;;
14778;SDS011;7481;53.750;10.570;2023-05-17T04:21:53;17.87;;;3.90;;
14778;SDS011;7481;53.750;10.570;2023-05-17T04:24:40;9.70;;;3.50;;
14778;SDS011;7481;53.750;10.570;2023-05-17T04:27:28;14.23;;;2.97;;
14778;SDS011;7481;53.750;10.570;2023-05-17T04:30:15;9.87;;;3.40;;
14778;SDS011;7481;53.750;10.570;2023-05-17T04:33:03;8.97;;;3.10;;
14778;SDS011;7481;53.750;10.570;2023-05-17T04:35:55;11.50;;;2.77;;
14778;SDS011;7481;53.750;10.570;2023-05-17T04:38:42;15.17;;;3.00;;
14778;SDS011;7481;53.750;10.570;2023-05-17T04:41:30;14.23;;;3.40;;
14778;SDS011;7481;53.750;10.570;2023-05-17T04:44:18;11.00;;;2.87;;
14778;SDS011;7481;53.750;10.570;2023-05-17T04:47:05;14.43;;;2.80;;
14778;SDS011;7481;53.750;10.570;2023-05-17T04:49:53;13.60;;;2.97;;
14778;SDS011;7481;53.750;10.570;2023-05-17T04:52:41;12.57;;;3.50;;
14778;SDS011;7481;53.750;10.570;2023-05-17T04:55:29;10.93;;;2.70;;
14778;SDS011;7481;53.750;10.570;2023-05-17T04:58:16;13.00;;;3.00;;
14778;SDS011;7481;53.750;10.570;2023-05-17T05:01:04;16.90;;;2.90;;
14778;SDS011;7481;53.750;10.570;2023-05-17T05:03:51;11.77;;;2.50;;
14778;SDS011;7481;53.750;10.570;2023-05-17T05:06:39;12.80;;;3.37;;
14778;SDS011;7481;53.750;10.570;2023-05-17T05:09:26;9.73;;;2.77;;
14778;SDS011;7481;53.750;10.570;2023-05-17T05:12:14;14.93;;;4.33;;
14778;SDS011;7481;53.750;10.570;2023-05-17T05:15:01;12.30;;;3.00;;
14778;SDS011;7481;53.750;10.570;2023-05-17T05:17:49;10.40;;;2.73;;
14778;SDS011;7481;53.750;10.570;2023-05-17T05:20:36;7.67;;;2.47;;
14778;SDS011;7481;53.750;10.570;2023-05-17T05:23:24;11.23;;;2.87;;
14778;SDS011;7481;53.750;10.570;2023-05-17T05:26:11;10.73;;;2.57;;
14778;SDS011;7481;53.750;10.570;2023-05-17T05:28:59;9.20;;;2.63;;
14778;SDS011;7481;53.750;10.570;2023-05-17T05:31:47;10.70;;;2.63;;
14778;SDS011;7481;53.750;10.570;2023-05-17T05:34:34;12.40;;;3.07;;
14778;SDS011;7481;53.750;10.570;2023-05-17T05:37:22;10.77;;;2.50;;
14778;SDS011;7481;53.750;10.570;2023-05-17T05:40:09;13.90;;;2.67;;
14778;SDS011;7481;53.750;10.570;2023-05-17T05:42:57;13.43;;;3.47;;
14778;SDS011;7481;53.750;10.570;2023-05-17T05:45:44;13.10;;;2.50;;
14778;SDS011;7481;53.750;10.570;2023-05-17T05:48:32;8.73;;;3.10;;
14778;SDS011;7481;53.750;10.570;2023-05-17T05:51:20;11.60;;;2.87;;
14778;SDS011;7481;53.750;10.570;2023-05-17T05:54:08;11.27;;;3.17;;
14778;SDS011;7481;53.750;10.570;2023-05-17T05:56:56;12.43;;;2.47;;
14778;SDS011;7481;53.750;10.570;2023-05-17T05:59:44;9.10;;;2.60;;
14778;SDS011;7481;53.750;10.570;2023-05-17T06:02:32;8.97;;;2.70;;
14778;SDS011;7481;53.750;10.570;2023-05-17T06:05:20;8.50;;;2.57;;
14778;SDS011;7481;53.750;10.570;2023-05-17T06:08:07;12.60;;;2.67;;
14778;SDS011;7481;53.750;10.570;2023-05-17T06:10:55;12.63;;;2.93;;
14778;SDS011;7481;53.750;10.570;2023-05-17T06:13:42;8.60;;;2.93;;
14778;SDS011;7481;53.750;10.570;2023-05-17T06:16:30;9.80;;;2.80;;
14778;SDS011;7481;53.750;10.570;2023-05-17T06:19:17;10.93;;;2.47;;
14778;SDS011;7481;53.750;10.570;2023-05-17T06:22:06;11.53;;;2.63;;
14778;SDS011;7481;53.750;10.570;2023-05-17T06:24:53;9.33;;;2.87;;
14778;SDS011;7481;53.750;10.570;2023-05-17T06:27:41;8.00;;;2.90;;
14778;SDS011;7481;53.750;10.570;2023-05-17T06:30:29;14.80;;;2.97;;
14778;SDS011;7481;53.750;10.570;2023-05-17T06:33:18;9.43;;;2.20;;
14778;SDS011;7481;53.750;10.570;2023-05-17T06:36:06;7.80;;;2.47;;
14778;SDS011;7481;53.750;10.570;2023-05-17T06:38:53;8.87;;;2.40;;
14778;SDS011;7481;53.750;10.570;2023-05-17T06:41:41;11.60;;;2.87;;
14778;SDS011;7481;53.750;10.570;2023-05-17T06:44:29;9.20;;;2.80;;
14778;SDS011;7481;53.750;10.570;2023-05-17T06:47:16;9.90;;;2.80;;
14778;SDS011;7481;53.750;10.570;2023-05-17T06:50:04;11.23;;;2.93;;
14778;SDS011;7481;53.750;10.570;2023-05-17T06:52:52;9.70;;;2.67;;
14778;SDS011;7481;53.750;10.570;2023-05-17T06:55:40;12.23;;;2.57;;
14778;SDS011;7481;53.750;10.570;2023-05-17T06:58:28;8.67;;;2.80;;
14778;SDS011;7481;53.750;10.570;2023-05-17T07:01:16;9.73;;;2.67;;
14778;SDS011;7481;53.750;10.570;2023-05-17T07:04:04;12.20;;;2.87;;
14778;SDS011;7481;53.750;10.570;2023-05-17T07:06:52;12.40;;;2.90;;
14778;SDS011;7481;53.750;10.570;2023-05-17T07:09:39;10.47;;;2.63;;
14778;SDS011;7481;53.750;10.570;2023-05-17T07:12:26;7.17;;;2.30;;
14778;SDS011;7481;53.750;10.570;2023-05-17T07:15:15;13.20;;;3.40;;
14778;SDS011;7481;53.750;10.570;2023-05-17T07:18:03;12.37;;;3.40;;
14778;SDS011;7481;53.750;10.570;2023-05-17T07:20:51;9.97;;;3.10;;
14778;SDS011;7481;53.750;10.570;2023-05-17T07:23:38;7.20;;;2.33;;
14778;SDS011;7481;53.750;10.570;2023-05-17T07:26:26;7.90;;;2.47;;
14778;SDS011;7481;53.750;10.570;2023-05-17T07:29:13;9.00;;;2.83;;
14778;SDS011;7481;53.750;10.570;2023-05-17T07:32:01;8.83;;;2.23;;
14778;SDS011;7481;53.750;10.570;2023-05-17T07:34:48;7.30;;;2.47;;
14778;SDS011;7481;53.750;10.570;2023-05-17T07:37:36;10.87;;;2.50;;
14778;SDS011;7481;53.750;10.570;2023-05-17T07:40:23;6.73;;;2.17;;
14778;SDS011;7481;53.750;10.570;2023-05-17T07:43:11;7.90;;;2.40;;
14778;SDS011;7481;53.750;10.570;2023-05-17T07:45:58;9.40;;;2.67;;
14778;SDS011;7481;53.750;10.570;2023-05-17T07:48:47;8.93;;;2.63;;
14778;SDS011;7481;53.750;10.570;2023-05-17T07:51:35;8.97;;;2.57;;
14778;SDS011;7481;53.750;10.570;2023-05-17T07:54:22;11.47;;;2.87;;
14778;SDS011;7481;53.750;10.570;2023-05-17T07:57:13;5.87;;;2.23;;
14778;SDS011;7481;53.750;10.570;2023-05-17T08:00:00;8.57;;;2.57;;
14778;SDS011;7481;53.750;10.570;2023-05-17T08:02:47;13.10;;;3.17;;
14778;SDS011;7481;53.750;10.570;2023-05-17T08:05:35;7.53;;;2.53;;
14778;SDS011;7481;53.750;10.570;2023-05-17T08:08:22;10.57;;;2.67;;
14778;SDS011;7481;53.750;10.570;2023-05-17T08:11:10;11.67;;;2.97;;
14778;SDS011;7481;53.750;10.570;2023-05-17T08:13:58;10.73;;;3.03;;
14778;SDS011;7481;53.750;10.570;2023-05-17T08:16:46;9.37;;;2.57;;
14778;SDS011;7481;53.750;10.570;2023-05-17T08:19:33;7.57;;;2.80;;
14778;SDS011;7481;53.750;10.570;2023-05-17T08:22:22;5.23;;;2.50;;
14778;SDS011;7481;53.750;10.570;2023-05-17T08:25:09;11.47;;;2.83;;
14778;SDS011;7481;53.750;10.570;2023-05-17T08:27:57;8.10;;;2.60;;
14778;SDS011;7481;53.750;10.570;2023-05-17T08:30:44;11.13;;;3.03;;
14778;SDS011;7481;53.750;10.570;2023-05-17T08:33:32;9.50;;;2.77;;
14778;SDS011;7481;53.750;10.570;2023-05-17T08:36:19;8.20;;;2.53;;
14778;SDS011;7481;53.750;10.570;2023-05-17T08:39:07;7.50;;;2.57;;
14778;SDS011;7481;53.750;10.570;2023-05-17T08:41:55;11.30;;;2.83;;
14778;SDS011;7481;53.750;10.570;2023-05-17T08:44:48;6.80;;;2.43;;
14778;SDS011;7481;53.750;10.570;2023-05-17T08:47:35;11.67;;;3.57;;
14778;SDS011;7481;53.750;10.570;2023-05-17T08:50:23;11.20;;;3.03;;
14778;SDS011;7481;53.750;10.570;2023-05-17T08:53:12;11.23;;;2.37;;
14778;SDS011;7481;53.750;10.570;2023-05-17T08:56:00;10.10;;;2.40;;
14778;SDS011;7481;53.750;10.570;2023-05-17T08:58:51;9.17;;;2.60;;
14778;SDS011;7481;53.750;10.570;2023-05-17T09:01:43;14.77;;;3.07;;
14778;SDS011;7481;53.750;10.570;2023-05-17T09:04:33;10.23;;;2.87;;
14778;SDS011;7481;53.750;10.570;2023-05-17T09:07:21;9.80;;;3.00;;
14778;SDS011;7481;53.750;10.570;2023-05-17T09:10:09;9.20;;;2.80;;
14778;SDS011;7481;53.750;10.570;2023-05-17T09:12:57;12.50;;;2.83;;
14778;SDS011;7481;53.750;10.570;2023-05-17T09:15:46;6.97;;;2.50;;
14778;SDS011;7481;53.750;10.570;2023-05-17T09:18:34;14.53;;;3.07;;
14778;SDS011;7481;53.750;10.570;2023-05-17T09:21:22;13.00;;;2.63;;
14778;SDS011;7481;53.750;10.570;2023-05-17T09:24:10;10.30;;;2.63;;
14778;SDS011;7481;53.750;10.570;2023-05-17T09:27:01;10.93;;;2.50;;
14778;SDS011;7481;53.750;10.570;2023-05-17T09:29:49;9.93;;;2.87;;
14778;SDS011;7481;53.750;10.570;2023-05-17T09:32:42;10.80;;;2.90;;
14778;SDS011;7481;53.750;10.570;2023-05-17T09:35:33;8.37;;;2.50;;
14778;SDS011;7481;53.750;10.570;2023-05-17T09:38:24;10.87;;;2.87;;
14778;SDS011;7481;53.750;10.570;2023-05-17T09:41:12;8.87;;;2.50;;
14778;SDS011;7481;53.750;10.570;2023-05-17T09:44:00;8.17;;;2.97;;
14778;SDS011;7481;53.750;10.570;2023-05-17T09:46:47;10.70;;;2.63;;
14778;SDS011;7481;53.750;10.570;2023-05-17T09:49:35;6.90;;;2.63;;
14778;SDS011;7481;53.750;10.570;2023-05-17T09:52:23;6.10;;;2.30;;
14778;SDS011;7481;53.750;10.570;2023-05-17T09:55:11;6.97;;;2.10;;
14778;SDS011;7481;53.750;10.570;2023-05-17T09:58:02;6.23;;;2.20;;
14778;SDS011;7481;53.750;10.570;2023-05-17T10:00:50;5.00;;;2.07;;
14778;SDS011;7481;53.750;10.570;2023-05-17T10:03:41;8.57;;;2.30;;
14778;SDS011;7481;53.750;10.570;2023-05-17T10:06:29;5.93;;;2.40;;
14778;SDS011;7481;53.750;10.570;2023-05-17T10:09:31;5.07;;;2.23;;
14778;SDS011;7481;53.750;10.570;2023-05-17T10:12:22;8.40;;;2.57;;
14778;SDS011;7481;53.750;10.570;2023-05-17T10:15:11;8.47;;;2.33;;
14778;SDS011;7481;53.750;10.570;2023-05-17T10:18:02;7.20;;;2.80;;
14778;SDS011;7481;53.750;10.570;2023-05-17T10:20:49;5.00;;;2.13;;
14778;SDS011;7481;53.750;10.570;2023-05-17T10:23:37;6.03;;;2.20;;
14778;SDS011;7481;53.750;10.570;2023-05-17T10:26:25;6.97;;;1.90;;
14778;SDS011;7481;53.750;10.570;2023-05-17T10:29:13;8.07;;;2.30;;
14778;SDS011;7481;53.750;10.570;2023-05-17T10:32:05;8.50;;;2.27;;
14778;SDS011;7481;53.750;10.570;2023-05-17T10:34:58;6.90;;;2.43;;
14778;SDS011;7481;53.750;10.570;2023-05-17T10:37:59;8.97;;;2.37;;
14778;SDS011;7481;53.750;10.570;2023-05-17T10:40:47;9.17;;;2.60;;
14778;SDS011;7481;53.750;10.570;2023-05-17T10:43:36;7.50;;;2.23;;
14778;SDS011;7481;53.750;10.570;2023-05-17T10:46:25;7.03;;;2.70;;
14778;SDS011;7481;53.750;10.570;2023-05-17T10:49:12;6.10;;;2.37;;
14778;SDS011;7481;53.750;10.570;2023-05-17T10:52:13;9.10;;;3.13;;
14778;SDS011;7481;53.750;10.570;2023-05-17T10:55:03;8.17;;;2.13;;
14778;SDS011;7481;53.750;10.570;2023-05-17T11:00:56;6.17;;;2.17;;
14778;SDS011;7481;53.750;10.570;2023-05-17T11:03:44;6.63;;;2.03;;
14778;SDS011;7481;53.750;10.570;2023-05-17T11:06:34;5.93;;;2.10;;
14778;SDS011;7481;53.750;10.570;2023-05-17T11:09:23;3.97;;;1.63;;
14778;SDS011;7481;53.750;10.570;2023-05-17T11:12:12;5.90;;;2.10;;
14778;SDS011;7481;53.750;10.570;2023-05-17T11:14:59;4.73;;;2.00;;
14778;SDS011;7481;53.750;10.570;2023-05-17T11:17:49;4.33;;;1.97;;
14778;SDS011;7481;53.750;10.570;2023-05-17T11:20:39;6.70;;;2.10;;
14778;SDS011;7481;53.750;10.570;2023-05-17T11:23:28;4.80;;;1.80;;
14778;SDS011;7481;53.750;10.570;2023-05-17T11:26:32;4.93;;;1.83;;
14778;SDS011;7481;53.750;10.570;2023-05-17T11:29:19;6.50;;;2.23;;
14778;SDS011;7481;53.750;10.570;2023-05-17T11:32:08;3.60;;;1.70;;
14778;SDS011;7481;53.750;10.570;2023-05-17T11:34:58;6.43;;;1.80;;
14778;SDS011;7481;53.750;10.570;2023-05-17T11:37:46;5.20;;;2.00;;
14778;SDS011;7481;53.750;10.570;2023-05-17T11:40:37;3.73;;;2.07;;
14778;SDS011;7481;53.750;10.570;2023-05-17T11:43:26;6.73;;;2.03;;
14778;SDS011;7481;53.750;10.570;2023-05-17T11:46:20;5.33;;;1.80;;
14778;SDS011;7481;53.750;10.570;2023-05-17T11:49:08;6.23;;;1.80;;
14778;SDS011;7481;53.750;10.570;2023-05-17T11:52:03;5.60;;;2.13;;
14778;SDS011;7481;53.750;10.570;2023-05-17T11:54:51;4.73;;;1.53;;
14778;SDS011;7481;53.750;10.570;2023-05-17T11:57:39;4.30;;;2.00;;
14778;SDS011;7481;53.750;10.570;2023-05-17T12:00:27;5.43;;;2.20;;
14778;SDS011;7481;53.750;10.570;2023-05-17T12:03:18;5.97;;;2.10;;
14778;SDS011;7481;53.750;10.570;2023-05-17T12:08:55;5.27;;;1.83;;
14778;SDS011;7481;53.750;10.570;2023-05-17T12:11:42;3.13;;;1.93;;
14778;SDS011;7481;53.750;10.570;2023-05-17T12:14:30;6.13;;;2.40;;
14778;SDS011;7481;53.750;10.570;2023-05-17T12:17:26;5.40;;;1.97;;
14778;SDS011;7481;53.750;10.570;2023-05-17T12:20:17;7.27;;;2.00;;
14778;SDS011;7481;53.750;10.570;2023-05-17T12:23:05;9.73;;;2.03;;
14778;SDS011;7481;53.750;10.570;2023-05-17T12:26:03;5.13;;;1.80;;
14778;SDS011;7481;53.750;10.570;2023-05-17T12:28:57;5.97;;;2.07;;
14778;SDS011;7481;53.750;10.570;2023-05-17T12:33:34;6.97;;;2.38;;
14778;SDS011;7481;53.750;10.570;2023-05-17T12:36:22;7.07;;;2.13;;
14778;SDS011;7481;53.750;10.570;2023-05-17T12:39:10;5.37;;;2.30;;
14778;SDS011;7481;53.750;10.570;2023-05-17T12:41:59;5.40;;;1.90;;
14778;SDS011;7481;53.750;10.570;2023-05-17T12:44:47;5.63;;;2.13;;
14778;SDS011;7481;53.750;10.570;2023-05-17T12:47:34;6.60;;;2.03;;
14778;SDS011;7481;53.750;10.570;2023-05-17T12:50:27;6.97;;;2.07;;
14778;SDS011;7481;53.750;10.570;2023-05-17T12:53:16;4.80;;;2.20;;
14778;SDS011;7481;53.750;10.570;2023-05-17T12:56:03;6.60;;;2.03;;
14778;SDS011;7481;53.750;10.570;2023-05-17T13:01:57;6.60;;;2.20;;
14778;SDS011;7481;53.750;10.570;2023-05-17T13:04:46;6.90;;;2.20;;
14778;SDS011;7481;53.750;10.570;2023-05-17T13:07:33;6.83;;;2.40;;
14778;SDS011;7481;53.750;10.570;2023-05-17T13:10:22;7.10;;;2.10;;
14778;SDS011;7481;53.750;10.570;2023-05-17T13:13:16;7.57;;;2.20;;
14778;SDS011;7481;53.750;10.570;2023-05-17T13:16:04;5.63;;;1.90;;
14778;SDS011;7481;53.750;10.570;2023-05-17T13:18:52;5.00;;;1.80;;
14778;SDS011;7481;53.750;10.570;2023-05-17T13:21:41;3.37;;;1.70;;
14778;SDS011;7481;53.750;10.570;2023-05-17T13:24:29;5.70;;;2.00;;
14778;SDS011;7481;53.750;10.570;2023-05-17T13:27:17;4.63;;;2.00;;
14778;SDS011;7481;53.750;10.570;2023-05-17T13:30:05;7.40;;;2.37;;
14778;SDS011;7481;53.750;10.570;2023-05-17T13:32:52;5.93;;;2.00;;
14778;SDS011;7481;53.750;10.570;2023-05-17T13:35:41;5.27;;;2.13;;
14778;SDS011;7481;53.750;10.570;2023-05-17T13:38:28;5.70;;;1.80;;
14778;SDS011;7481;53.750;10.570;2023-05-17T13:41:16;4.33;;;2.20;;
14778;SDS011;7481;53.750;10.570;2023-05-17T13:44:04;4.03;;;1.77;;
14778;SDS011;7481;53.750;10.570;2023-05-17T13:46:51;5.13;;;1.83;;
14778;SDS011;7481;53.750;10.570;2023-05-17T13:49:38;5.83;;;2.20;;
14778;SDS011;7481;53.750;10.570;2023-05-17T13:52:27;3.87;;;1.87;;
14778;SDS011;7481;53.750;10.570;2023-05-17T13:55:14;5.03;;;2.20;;
14778;SDS011;7481;53.750;10.570;2023-05-17T13:58:01;5.67;;;1.80;;
14778;SDS011;7481;53.750;10.570;2023-05-17T14:00:49;4.50;;;1.93;;
14778;SDS011;7481;53.750;10.570;2023-05-17T14:03:37;3.23;;;1.60;;
14778;SDS011;7481;53.750;10.570;2023-05-17T14:06:24;6.40;;;1.80;;
14778;SDS011;7481;53.750;10.570;2023-05-17T14:09:12;5.70;;;1.87;;
14778;SDS011;7481;53.750;10.570;2023-05-17T14:12:00;2.97;;;1.80;;
14778;SDS011;7481;53.750;10.570;2023-05-17T14:14:48;7.03;;;2.10;;
14778;SDS011;7481;53.750;10.570;2023-05-17T14:17:36;4.97;;;1.53;;
14778;SDS011;7481;53.750;10.570;2023-05-17T14:20:24;7.07;;;2.27;;
14778;SDS011;7481;53.750;10.570;2023-05-17T14:23:12;6.93;;;1.67;;
14778;SDS011;7481;53.750;10.570;2023-05-17T14:25:59;5.90;;;2.30;;
14778;SDS011;7481;53.750;10.570;2023-05-17T14:28:48;5.07;;;2.20;;
14778;SDS011;7481;53.750;10.570;2023-05-17T14:31:36;4.77;;;1.80;;
14778;SDS011;7481;53.750;10.570;2023-05-17T14:34:24;5.73;;;1.60;;
14778;SDS011;7481;53.750;10.570;2023-05-17T14:37:12;5.23;;;1.80;;
14778;SDS011;7481;53.750;10.570;2023-05-17T14:40:00;4.50;;;1.87;;
14778;SDS011;7481;53.750;10.570;2023-05-17T14:42:52;6.77;;;1.80;;
14778;SDS011;7481;53.750;10.570;2023-05-17T14:45:40;4.40;;;1.80;;
14778;SDS011;7481;53.750;10.570;2023-05-17T14:48:27;7.70;;;2.20;;
14778;SDS011;7481;53.750;10.570;2023-05-17T14:51:16;6.47;;;2.13;;
14778;SDS011;7481;53.750;10.570;2023-05-17T14:54:04;3.97;;;2.00;;
14778;SDS011;7481;53.750;10.570;2023-05-17T14:56:52;4.90;;;1.60;;
14778;SDS011;7481;53.750;10.570;2023-05-17T14:59:39;6.10;;;1.87;;
14778;SDS011;7481;53.750;10.570;2023-05-17T15:02:30;4.17;;;1.90;;
14778;SDS011;7481;53.750;10.570;2023-05-17T15:05:18;6.03;;;1.90;;
14778;SDS011;7481;53.750;10.570;2023-05-17T15:08:06;3.90;;;1.97;;
14778;SDS011;7481;53.750;10.570;2023-05-17T15:10:54;3.20;;;1.60;;
14778;SDS011;7481;53.750;10.570;2023-05-17T15:13:43;3.57;;;1.60;;
14778;SDS011;7481;53.750;10.570;2023-05-17T15:16:31;4.90;;;2.03;;
14778;SDS011;7481;53.750;10.570;2023-05-17T15:19:19;5.07;;;2.03;;
14778;SDS011;7481;53.750;10.570;2023-05-17T15:22:06;2.43;;;1.53;;
14778;SDS011;7481;53.750;10.570;2023-05-17T15:24:54;5.47;;;1.90;;
14778;SDS011;7481;53.750;10.570;2023-05-17T15:27:43;4.87;;;1.80;;
14778;SDS011;7481;53.750;10.570;2023-05-17T15:30:31;3.63;;;1.83;;
14778;SDS011;7481;53.750;10.570;2023-05-17T15:33:19;6.03;;;2.10;;
14778;SDS011;7481;53.750;10.570;2023-05-17T15:36:06;7.90;;;1.90;;
14778;SDS011;7481;53.750;10.570;2023-05-17T15:38:56;4.97;;;2.03;;
14778;SDS011;7481;53.750;10.570;2023-05-17T15:41:43;5.07;;;2.03;;
14778;SDS011;7481;53.750;10.570;2023-05-17T15:44:31;6.40;;;1.60;;
14778;SDS011;7481;53.750;10.570;2023-05-17T15:47:18;10.83;;;2.33;;
14778;SDS011;7481;53.750;10.570;2023-05-17T15:50:11;11.60;;;2.43;;
14778;SDS011;7481;53.750;10.570;2023-05-17T15:52:59;6.07;;;2.00;;
14778;SDS011;7481;53.750;10.570;2023-05-17T15:55:48;5.30;;;2.03;;
14778;SDS011;7481;53.750;10.570;2023-05-17T15:58:36;6.30;;;1.97;;
14778;SDS011;7481;53.750;10.570;2023-05-17T16:01:24;5.83;;;1.80;;
14778;SDS011;7481;53.750;10.570;2023-05-17T16:04:11;4.77;;;2.10;;
14778;SDS011;7481;53.750;10.570;2023-05-17T16:06:59;6.23;;;1.90;;
14778;SDS011;7481;53.750;10.570;2023-05-17T16:09:47;8.87;;;2.50;;
14778;SDS011;7481;53.750;10.570;2023-05-17T16:12:34;4.10;;;1.83;;
14778;SDS011;7481;53.750;10.570;2023-05-17T16:15:22;6.93;;;2.30;;
14778;SDS011;7481;53.750;10.570;2023-05-17T16:18:09;6.87;;;2.30;;
14778;SDS011;7481;53.750;10.570;2023-05-17T16:21:01;9.40;;;2.07;;
14778;SDS011;7481;53.750;10.570;2023-05-17T16:23:48;8.17;;;2.40;;
14778;SDS011;7481;53.750;10.570;2023-05-17T16:26:37;3.40;;;1.93;;
14778;SDS011;7481;53.750;10.570;2023-05-17T16:29:25;7.63;;;2.57;;
14778;SDS011;7481;53.750;10.570;2023-05-17T16:32:13;6.47;;;2.20;;
14778;SDS011;7481;53.750;10.570;2023-05-17T16:35:00;6.00;;;2.23;;
14778;SDS011;7481;53.750;10.570;2023-05-17T16:37:48;7.93;;;2.20;;
14778;SDS011;7481;53.750;10.570;2023-05-17T16:40:37;4.87;;;1.90;;
14778;SDS011;7481;53.750;10.570;2023-05-17T16:43:25;8.53;;;2.10;;
14778;SDS011;7481;53.750;10.570;2023-05-17T16:46:12;12.80;;;2.00;;
14778;SDS011;7481;53.750;10.570;2023-05-17T16:49:00;5.83;;;1.97;;
14778;SDS011;7481;53.750;10.570;2023-05-17T16:51:47;6.53;;;2.20;;
14778;SDS011;7481;53.750;10.570;2023-05-17T16:54:37;4.60;;;1.80;;
14778;SDS011;7481;53.750;10.570;2023-05-17T16:57:25;9.17;;;1.83;;
14778;SDS011;7481;53.750;10.570;2023-05-17T17:00:13;7.27;;;2.07;;
14778;SDS011;7481;53.750;10.570;2023-05-17T17:03:01;5.77;;;1.80;;
14778;SDS011;7481;53.750;10.570;2023-05-17T17:05:49;5.53;;;1.90;;
14778;SDS011;7481;53.750;10.570;2023-05-17T17:08:37;9.60;;;1.90;;
14778;SDS011;7481;53.750;10.570;2023-05-17T17:11:27;7.17;;;1.93;;